Springfield, OH (45503)

7:04 PM EDT on July 07, 2015 (GMT -0400)
Snyder Park | | Change Station
CLOSE
Current Station
Personal Weather Station
Location: Springfield, OH
Elevation: 919 ft
Nearby Weather Stations

Elev 919 ft 39.93 °N, 83.85 °W | Updated 4 seconds ago

Partly Cloudy
Partly Cloudy
71.7 °F
Feels Like 71.7 °F
N
1.7
Wind Variable Wind from SW
Gusts 4.6 mph

Today
High -- | Low -- °F
--% Chance of Precip.
Yesterday
High -- | Low -- °F
Precip. -- in
6:13 AM 9:06 PM
Waning Gibbous, 60% visible
Pressure 29.97 in
Visibility 3.0 miles
Clouds Scattered Clouds 300 ft
Mostly Cloudy 2500 ft
Overcast 6500 ft
Dew Point 70 °F
Humidity 94%
Rainfall 0.48 in
Snow Depth Not available.
UV 1 out of 12
Pollen 2.00 out of 12
Air Quality Not available.
Flu Activity Not available.
SPECI KSGH 072300Z AUTO 26009KT 3SM -RA BR SCT003 BKN025 OVC065 23/23 A2997 RMK AO2 LTG DSNT E P0000

More Conditions Fewer Conditions

Pressure 29.97 in
Visibility 3.0 miles
Clouds Scattered Clouds 300 ft
Mostly Cloudy 2500 ft
Overcast 6500 ft
Dew Point 70 °F
Humidity 94%
Rainfall 0.48 in
Snow Depth Not available.
UV 1 out of 12
Pollen 2.00 out of 12
Air Quality Not available.
Flu Activity Not available.
SPECI KSGH 072300Z AUTO 26009KT 3SM -RA BR SCT003 BKN025 OVC065 23/23 A2997 RMK AO2 LTG DSNT E P0000

More Conditions Fewer Conditions

10-Day Weather Forecast

×

Almanac

Astronomy

Jul. 07, 2015 Rise Set
Actual Time
Civil Twilight
Nautical Twilight
Astronomical Twilight
Moon
Length of Visible Light
Length of Day
Tomorrow will be .
, % of the Moon is Illuminated

Today's Extremes

State Highs State Lows

Community

WunderPhotos

Upload Photos

1,835,951 photos uploaded!

WunderBlogs® & News

Nearby

Air Quality

  Air Quality AQ Index Pollutant
Not available.

Snow Depth

Station Depth Elevation

Earthquake Activity

City Distance Mag. Time & Date
Minimum magnitude displayed is 2.5.

Coastal Water Temperatures

Place Temperature

Stations

Nearby Weather Stations

Station Location Temp. Windchill Dew Point Humidity Wind Precip. Elev Updated Type